sensor_id;sensor_type;location;lat;lon;timestamp;pressure;altitude;pressure_sealevel;temperature;humidity
34185;BME280;20454;48.100;11.776;2023-04-23T00:01:46;94834.69;;;13.63;71.82
34185;BME280;20454;48.100;11.776;2023-04-23T00:04:13;94837.00;;;13.61;72.51
34185;BME280;20454;48.100;11.776;2023-04-23T00:06:40;94839.81;;;13.61;71.75
34185;BME280;20454;48.100;11.776;2023-04-23T00:09:07;94837.00;;;13.61;71.42
34185;BME280;20454;48.100;11.776;2023-04-23T00:11:33;94837.47;;;13.63;71.10
34185;BME280;20454;48.100;11.776;2023-04-23T00:13:59;94838.19;;;13.60;71.43
34185;BME280;20454;48.100;11.776;2023-04-23T00:16:25;94832.69;;;13.63;71.60
34185;BME280;20454;48.100;11.776;2023-04-23T00:18:50;94830.25;;;13.62;71.43
34185;BME280;20454;48.100;11.776;2023-04-23T00:21:16;94825.47;;;13.62;71.76
34185;BME280;20454;48.100;11.776;2023-04-23T00:23:42;94829.09;;;13.63;71.64
34185;BME280;20454;48.100;11.776;2023-04-23T00:26:07;94827.44;;;13.62;72.27
34185;BME280;20454;48.100;11.776;2023-04-23T00:28:33;94827.00;;;13.60;71.75
34185;BME280;20454;48.100;11.776;2023-04-23T00:30:58;94828.63;;;13.61;71.96
34185;BME280;20454;48.100;11.776;2023-04-23T00:33:24;94825.72;;;13.57;72.04
34185;BME280;20454;48.100;11.776;2023-04-23T00:35:50;94818.53;;;13.56;72.48
34185;BME280;20454;48.100;11.776;2023-04-23T00:38:15;94822.94;;;13.57;72.70
34185;BME280;20454;48.100;11.776;2023-04-23T00:40:41;94823.31;;;13.56;72.25
34185;BME280;20454;48.100;11.776;2023-04-23T00:43:07;94816.44;;;13.53;72.91
34185;BME280;20454;48.100;11.776;2023-04-23T00:45:34;94817.63;;;13.52;73.38
34185;BME280;20454;48.100;11.776;2023-04-23T00:48:00;94819.16;;;13.50;74.07
34185;BME280;20454;48.100;11.776;2023-04-23T00:50:26;94812.09;;;13.40;74.35
34185;BME280;20454;48.100;11.776;2023-04-23T00:52:52;94828.03;;;13.40;74.41
34185;BME280;20454;48.100;11.776;2023-04-23T00:55:17;94826.75;;;13.37;75.93
34185;BME280;20454;48.100;11.776;2023-04-23T00:57:45;94824.25;;;13.32;75.82
34185;BME280;20454;48.100;11.776;2023-04-23T01:00:11;94824.13;;;13.29;76.21
34185;BME280;20454;48.100;11.776;2023-04-23T01:02:38;94816.00;;;13.24;76.93
34185;BME280;20454;48.100;11.776;2023-04-23T01:05:07;94813.47;;;13.19;76.91
34185;BME280;20454;48.100;11.776;2023-04-23T01:07:34;94808.59;;;13.16;77.61
34185;BME280;20454;48.100;11.776;2023-04-23T01:10:00;94820.94;;;13.15;77.99
34185;BME280;20454;48.100;11.776;2023-04-23T01:12:26;94821.63;;;13.12;78.42
34185;BME280;20454;48.100;11.776;2023-04-23T01:14:51;94822.81;;;13.11;79.29
34185;BME280;20454;48.100;11.776;2023-04-23T01:17:17;94816.31;;;13.07;79.79
34185;BME280;20454;48.100;11.776;2023-04-23T01:19:43;94825.03;;;13.05;79.71
34185;BME280;20454;48.100;11.776;2023-04-23T01:22:11;94822.16;;;13.02;80.44
34185;BME280;20454;48.100;11.776;2023-04-23T01:24:36;94820.03;;;12.99;81.49
34185;BME280;20454;48.100;11.776;2023-04-23T01:27:02;94813.88;;;12.93;81.53
34185;BME280;20454;48.100;11.776;2023-04-23T01:29:28;94816.56;;;12.90;81.69
34185;BME280;20454;48.100;11.776;2023-04-23T01:31:54;94811.94;;;12.82;82.29
34185;BME280;20454;48.100;11.776;2023-04-23T01:34:21;94821.94;;;12.83;82.59
34185;BME280;20454;48.100;11.776;2023-04-23T01:36:47;94815.78;;;12.77;83.01
34185;BME280;20454;48.100;11.776;2023-04-23T01:39:13;94821.38;;;12.77;82.52
34185;BME280;20454;48.100;11.776;2023-04-23T01:41:39;94821.59;;;12.72;82.68
34185;BME280;20454;48.100;11.776;2023-04-23T01:44:05;94823.13;;;12.70;83.00
34185;BME280;20454;48.100;11.776;2023-04-23T01:46:30;94821.38;;;12.65;82.96
34185;BME280;20454;48.100;11.776;2023-04-23T01:48:56;94821.72;;;12.64;82.84
34185;BME280;20454;48.100;11.776;2023-04-23T01:51:22;94830.94;;;12.64;83.52
34185;BME280;20454;48.100;11.776;2023-04-23T01:53:50;94815.34;;;12.63;83.02
34185;BME280;20454;48.100;11.776;2023-04-23T01:56:15;94827.78;;;12.66;81.92
34185;BME280;20454;48.100;11.776;2023-04-23T01:58:43;94825.00;;;12.66;82.49
34185;BME280;20454;48.100;11.776;2023-04-23T06:02:09;94949.09;;;13.04;100.00
34185;BME280;20454;48.100;11.776;2023-04-23T06:04:36;94941.50;;;13.17;100.00
34185;BME280;20454;48.100;11.776;2023-04-23T06:07:01;94951.13;;;13.31;100.00
34185;BME280;20454;48.100;11.776;2023-04-23T06:09:27;94951.44;;;13.42;100.00
34185;BME280;20454;48.100;11.776;2023-04-23T06:11:53;94954.69;;;13.44;100.00
34185;BME280;20454;48.100;11.776;2023-04-23T06:14:19;94954.91;;;13.51;100.00
34185;BME280;20454;48.100;11.776;2023-04-23T06:16:45;94955.91;;;13.58;100.00
34185;BME280;20454;48.100;11.776;2023-04-23T06:19:10;94951.72;;;13.64;100.00
34185;BME280;20454;48.100;11.776;2023-04-23T06:21:36;94954.88;;;13.63;98.11
34185;BME280;20454;48.100;11.776;2023-04-23T06:24:02;94948.91;;;13.64;96.74
34185;BME280;20454;48.100;11.776;2023-04-23T06:26:28;94956.84;;;13.62;96.49
34185;BME280;20454;48.100;11.776;2023-04-23T06:28:54;94955.13;;;13.58;96.04
34185;BME280;20454;48.100;11.776;2023-04-23T06:31:21;94961.06;;;13.56;95.46
34185;BME280;20454;48.100;11.776;2023-04-23T06:33:46;94958.19;;;13.41;95.55
34185;BME280;20454;48.100;11.776;2023-04-23T06:36:12;94957.97;;;13.34;96.80
34185;BME280;20454;48.100;11.776;2023-04-23T06:38:39;94958.56;;;13.27;97.05
34185;BME280;20454;48.100;11.776;2023-04-23T06:41:06;94954.63;;;13.16;97.52
34185;BME280;20454;48.100;11.776;2023-04-23T06:43:31;94963.72;;;13.13;98.94
34185;BME280;20454;48.100;11.776;2023-04-23T06:45:57;94969.19;;;13.10;97.59
34185;BME280;20454;48.100;11.776;2023-04-23T06:48:23;94966.41;;;12.98;99.21
34185;BME280;20454;48.100;11.776;2023-04-23T06:50:50;94960.81;;;12.86;100.00
34185;BME280;20454;48.100;11.776;2023-04-23T06:53:16;94974.56;;;12.79;100.00
34185;BME280;20454;48.100;11.776;2023-04-23T06:55:42;94962.22;;;12.68;100.00
34185;BME280;20454;48.100;11.776;2023-04-23T06:58:08;94966.03;;;12.63;100.00
34185;BME280;20454;48.100;11.776;2023-04-23T16:00:41;94432.44;;;16.48;100.00
34185;BME280;20454;48.100;11.776;2023-04-23T16:03:07;94431.94;;;16.79;100.00
34185;BME280;20454;48.100;11.776;2023-04-23T16:05:33;94427.75;;;17.06;99.97
34185;BME280;20454;48.100;11.776;2023-04-23T16:08:01;94423.94;;;17.28;96.96
34185;BME280;20454;48.100;11.776;2023-04-23T16:10:27;94417.69;;;17.52;95.26
34185;BME280;20454;48.100;11.776;2023-04-23T16:12:54;94404.47;;;17.60;89.77
34185;BME280;20454;48.100;11.776;2023-04-23T16:15:20;94419.28;;;17.53;87.55
34185;BME280;20454;48.100;11.776;2023-04-23T16:17:46;94411.25;;;17.52;88.12
34185;BME280;20454;48.100;11.776;2023-04-23T16:20:13;94408.44;;;17.55;89.44
34185;BME280;20454;48.100;11.776;2023-04-23T16:22:38;94409.28;;;17.59;88.98
34185;BME280;20454;48.100;11.776;2023-04-23T16:25:04;94396.84;;;17.64;89.24
34185;BME280;20454;48.100;11.776;2023-04-23T16:27:30;94392.03;;;17.61;88.44
34185;BME280;20454;48.100;11.776;2023-04-23T16:29:56;94396.78;;;17.50;87.63
34185;BME280;20454;48.100;11.776;2023-04-23T16:32:22;94389.47;;;17.38;86.33
34185;BME280;20454;48.100;11.776;2023-04-23T16:34:48;94391.81;;;17.29;89.67
34185;BME280;20454;48.100;11.776;2023-04-23T16:37:13;94388.91;;;17.19;91.94
34185;BME280;20454;48.100;11.776;2023-04-23T16:39:41;94386.81;;;17.09;92.39
34185;BME280;20454;48.100;11.776;2023-04-23T16:42:07;94390.84;;;17.08;93.18
34185;BME280;20454;48.100;11.776;2023-04-23T16:44:33;94390.41;;;17.02;93.38
34185;BME280;20454;48.100;11.776;2023-04-23T16:46:59;94394.34;;;16.94;94.78
34185;BME280;20454;48.100;11.776;2023-04-23T16:49:24;94398.69;;;16.85;95.93
34185;BME280;20454;48.100;11.776;2023-04-23T16:51:50;94404.22;;;16.74;96.33
34185;BME280;20454;48.100;11.776;2023-04-23T16:54:16;94414.53;;;16.63;98.04
34185;BME280;20454;48.100;11.776;2023-04-23T16:56:41;94417.56;;;16.48;98.04
34185;BME280;20454;48.100;11.776;2023-04-23T16:59:10;94423.53;;;16.39;99.35
34185;BME280;20454;48.100;11.776;2023-04-23T19:31:52;94524.78;;;13.27;87.65
34185;BME280;20454;48.100;11.776;2023-04-23T19:34:17;94523.28;;;13.14;86.82
34185;BME280;20454;48.100;11.776;2023-04-23T19:36:44;94527.78;;;13.03;87.94
34185;BME280;20454;48.100;11.776;2023-04-23T19:39:09;94532.16;;;12.88;89.68
34185;BME280;20454;48.100;11.776;2023-04-23T19:41:35;94534.16;;;12.88;89.47
34185;BME280;20454;48.100;11.776;2023-04-23T19:44:01;94544.47;;;12.72;91.02
34185;BME280;20454;48.100;11.776;2023-04-23T19:46:26;94560.78;;;12.70;92.10
34185;BME280;20454;48.100;11.776;2023-04-23T19:48:52;94569.41;;;12.65;92.38
34185;BME280;20454;48.100;11.776;2023-04-23T19:51:19;94575.97;;;12.57;92.27
34185;BME280;20454;48.100;11.776;2023-04-23T19:53:48;94568.34;;;12.54;93.14
34185;BME280;20454;48.100;11.776;2023-04-23T19:56:13;94590.56;;;12.50;95.57
34185;BME280;20454;48.100;11.776;2023-04-23T19:58:39;94588.34;;;12.44;96.45
34185;BME280;20454;48.100;11.776;2023-04-23T20:01:05;94584.94;;;12.35;99.11
34185;BME280;20454;48.100;11.776;2023-04-23T20:03:32;94587.97;;;12.30;99.88
34185;BME280;20454;48.100;11.776;2023-04-23T20:05:58;94580.56;;;12.22;100.00
34185;BME280;20454;48.100;11.776;2023-04-23T20:08:24;94570.72;;;12.12;100.00
34185;BME280;20454;48.100;11.776;2023-04-23T20:10:53;94581.53;;;12.14;100.00
34185;BME280;20454;48.100;11.776;2023-04-23T20:13:19;94581.53;;;12.14;100.00
34185;BME280;20454;48.100;11.776;2023-04-23T20:15:45;94584.22;;;12.10;100.00
34185;BME280;20454;48.100;11.776;2023-04-23T20:18:12;94590.13;;;12.09;100.00
34185;BME280;20454;48.100;11.776;2023-04-23T20:20:38;94586.78;;;12.03;100.00
34185;BME280;20454;48.100;11.776;2023-04-23T20:23:06;94591.56;;;12.03;100.00
34185;BME280;20454;48.100;11.776;2023-04-23T20:25:32;94589.94;;;12.02;100.00
34185;BME280;20454;48.100;11.776;2023-04-23T20:28:00;94581.47;;;11.98;100.00
34185;BME280;20454;48.100;11.776;2023-04-23T20:30:26;94580.22;;;11.96;100.00
34185;BME280;20454;48.100;11.776;2023-04-23T20:32:52;94573.47;;;11.97;100.00
34185;BME280;20454;48.100;11.776;2023-04-23T20:35:17;94563.84;;;11.94;100.00
34185;BME280;20454;48.100;11.776;2023-04-23T20:37:43;94573.91;;;11.99;100.00
34185;BME280;20454;48.100;11.776;2023-04-23T20:40:09;94572.75;;;12.00;100.00
34185;BME280;20454;48.100;11.776;2023-04-23T20:42:35;94578.66;;;11.98;100.00
34185;BME280;20454;48.100;11.776;2023-04-23T20:45:04;94590.88;;;11.94;100.00
34185;BME280;20454;48.100;11.776;2023-04-23T20:47:32;94604.94;;;11.85;100.00
34185;BME280;20454;48.100;11.776;2023-04-23T20:49:58;94618.09;;;11.85;100.00
34185;BME280;20454;48.100;11.776;2023-04-23T20:52:24;94599.44;;;11.73;100.00
34185;BME280;20454;48.100;11.776;2023-04-23T20:54:50;94597.81;;;11.72;100.00
34185;BME280;20454;48.100;11.776;2023-04-23T20:57:15;94608.97;;;11.72;100.00
34185;BME280;20454;48.100;11.776;2023-04-23T20:59:41;94603.28;;;11.69;100.00
34185;BME280;20454;48.100;11.776;2023-04-23T21:02:08;94601.63;;;11.68;100.00
34185;BME280;20454;48.100;11.776;2023-04-23T21:04:36;94613.13;;;11.66;100.00
34185;BME280;20454;48.100;11.776;2023-04-23T21:07:02;94596.75;;;11.65;100.00
34185;BME280;20454;48.100;11.776;2023-04-23T21:09:28;94597.94;;;11.64;100.00
34185;BME280;20454;48.100;11.776;2023-04-23T21:11:54;94604.78;;;11.66;100.00
34185;BME280;20454;48.100;11.776;2023-04-23T21:14:21;94591.09;;;11.61;100.00
34185;BME280;20454;48.100;11.776;2023-04-23T21:16:46;94604.66;;;11.63;100.00
34185;BME280;20454;48.100;11.776;2023-04-23T21:19:12;94595.50;;;11.62;100.00
34185;BME280;20454;48.100;11.776;2023-04-23T21:21:38;94597.47;;;11.62;100.00
34185;BME280;20454;48.100;11.776;2023-04-23T21:24:03;94599.44;;;11.61;100.00
34185;BME280;20454;48.100;11.776;2023-04-23T21:26:30;94586.22;;;11.58;100.00
34185;BME280;20454;48.100;11.776;2023-04-23T21:28:57;94590.84;;;11.54;100.00
34185;BME280;20454;48.100;11.776;2023-04-23T21:31:28;94605.22;;;11.56;100.00
34185;BME280;20454;48.100;11.776;2023-04-23T21:33:58;94596.84;;;11.56;100.00
34185;BME280;20454;48.100;11.776;2023-04-23T21:36:23;94600.69;;;11.52;100.00
34185;BME280;20454;48.100;11.776;2023-04-23T21:38:49;94600.25;;;11.50;100.00
34185;BME280;20454;48.100;11.776;2023-04-23T21:41:15;94595.63;;;11.42;100.00
34185;BME280;20454;48.100;11.776;2023-04-23T21:43:40;94591.66;;;11.43;100.00
34185;BME280;20454;48.100;11.776;2023-04-23T21:46:06;94602.19;;;11.49;100.00
34185;BME280;20454;48.100;11.776;2023-04-23T21:48:32;94598.50;;;11.45;100.00
34185;BME280;20454;48.100;11.776;2023-04-23T21:50:57;94594.09;;;11.44;100.00
34185;BME280;20454;48.100;11.776;2023-04-23T21:53:23;94597.69;;;11.45;100.00
34185;BME280;20454;48.100;11.776;2023-04-23T21:55:50;94587.16;;;11.38;100.00
34185;BME280;20454;48.100;11.776;2023-04-23T21:58:15;94605.59;;;11.43;100.00
34185;BME280;20454;48.100;11.776;2023-04-23T22:00:41;94602.69;;;11.39;100.00
34185;BME280;20454;48.100;11.776;2023-04-23T22:03:08;94605.59;;;11.43;100.00
34185;BME280;20454;48.100;11.776;2023-04-23T22:05:34;94603.97;;;11.42;100.00
34185;BME280;20454;48.100;11.776;2023-04-23T22:08:00;94599.44;;;11.37;100.00
34185;BME280;20454;48.100;11.776;2023-04-23T22:10:26;94602.34;;;11.41;100.00
34185;BME280;20454;48.100;11.776;2023-04-23T22:12:52;94604.75;;;11.42;100.00
34185;BME280;20454;48.100;11.776;2023-04-23T22:15:18;94586.78;;;11.40;100.00
34185;BME280;20454;48.100;11.776;2023-04-23T22:17:44;94589.94;;;11.38;100.00
34185;BME280;20454;48.100;11.776;2023-04-23T22:20:15;94594.34;;;11.39;100.00
34185;BME280;20454;48.100;11.776;2023-04-23T22:22:43;94586.66;;;11.36;100.00
34185;BME280;20454;48.100;11.776;2023-04-23T22:25:09;94585.41;;;11.34;100.00
34185;BME280;20454;48.100;11.776;2023-04-23T22:27:37;94597.47;;;11.38;100.00
34185;BME280;20454;48.100;11.776;2023-04-23T22:30:04;94593.16;;;11.40;100.00
34185;BME280;20454;48.100;11.776;2023-04-23T22:32:31;94586.78;;;11.40;100.00
34185;BME280;20454;48.100;11.776;2023-04-23T22:34:56;94588.44;;;11.41;100.00
34185;BME280;20454;48.100;11.776;2023-04-23T22:37:22;94591.22;;;11.41;100.00
34185;BME280;20454;48.100;11.776;2023-04-23T22:39:48;94601.19;;;11.42;100.00
34185;BME280;20454;48.100;11.776;2023-04-23T22:42:14;94594.78;;;11.41;100.00
34185;BME280;20454;48.100;11.776;2023-04-23T22:44:41;94590.50;;;11.44;100.00
34185;BME280;20454;48.100;11.776;2023-04-23T22:47:07;94588.75;;;11.39;100.00
34185;BME280;20454;48.100;11.776;2023-04-23T22:49:32;94594.78;;;11.41;100.00
34185;BME280;20454;48.100;11.776;2023-04-23T22:51:59;94594.91;;;11.45;100.00
34185;BME280;20454;48.100;11.776;2023-04-23T22:54:26;94589.22;;;11.41;100.00
34185;BME280;20454;48.100;11.776;2023-04-23T22:56:52;94591.88;;;11.38;100.00
34185;BME280;20454;48.100;11.776;2023-04-23T22:59:18;94592.84;;;11.42;100.00
34185;BME280;20454;48.100;11.776;2023-04-23T23:01:44;94587.25;;;11.42;100.00
34185;BME280;20454;48.100;11.776;2023-04-23T23:04:10;94596.41;;;11.42;100.00
34185;BME280;20454;48.100;11.776;2023-04-23T23:06:38;94596.06;;;11.44;100.00
34185;BME280;20454;48.100;11.776;2023-04-23T23:09:04;94595.63;;;11.42;100.00
34185;BME280;20454;48.100;11.776;2023-04-23T23:11:29;94589.09;;;11.38;100.00
34185;BME280;20454;48.100;11.776;2023-04-23T23:13:55;94595.97;;;11.40;100.00
34185;BME280;20454;48.100;11.776;2023-04-23T23:16:21;94592.94;;;11.33;100.00
34185;BME280;20454;48.100;11.776;2023-04-23T23:18:47;94589.94;;;11.38;100.00
34185;BME280;20454;48.100;11.776;2023-04-23T23:21:13;94589.09;;;11.38;100.00
34185;BME280;20454;48.100;11.776;2023-04-23T23:23:39;94577.50;;;11.36;100.00
34185;BME280;20454;48.100;11.776;2023-04-23T23:26:04;94582.38;;;11.39;100.00
34185;BME280;20454;48.100;11.776;2023-04-23T23:28:30;94576.56;;;11.32;100.00
34185;BME280;20454;48.100;11.776;2023-04-23T23:30:56;94580.41;;;11.27;100.00
34185;BME280;20454;48.100;11.776;2023-04-23T23:33:22;94577.97;;;11.26;100.00
34185;BME280;20454;48.100;11.776;2023-04-23T23:35:48;94571.03;;;11.20;100.00
34185;BME280;20454;48.100;11.776;2023-04-23T23:38:13;94575.66;;;11.16;100.00
34185;BME280;20454;48.100;11.776;2023-04-23T23:40:39;94572.06;;;11.15;100.00
34185;BME280;20454;48.100;11.776;2023-04-23T23:43:05;94574.28;;;11.10;100.00
34185;BME280;20454;48.100;11.776;2023-04-23T23:45:30;94565.69;;;11.03;100.00
34185;BME280;20454;48.100;11.776;2023-04-23T23:47:56;94574.88;;;11.03;100.00
34185;BME280;20454;48.100;11.776;2023-04-23T23:50:22;94568.03;;;11.01;100.00
34185;BME280;20454;48.100;11.776;2023-04-23T23:52:48;94561.06;;;10.95;100.00
34185;BME280;20454;48.100;11.776;2023-04-23T23:55:14;94563.84;;;10.95;100.00
34185;BME280;20454;48.100;11.776;2023-04-23T23:57:40;94553.38;;;10.92;100.00
